createdAt,value
2022-11-07T00:01:13.749Z,100494.38
2022-11-07T00:03:40.153Z,100492.44
2022-11-07T00:06:06.827Z,100490.13
2022-11-07T00:08:33.299Z,100492.28
2022-11-07T00:11:03.422Z,100498.19
2022-11-07T00:13:30.683Z,100488.50
2022-11-07T00:16:09.071Z,100496.97
2022-11-07T00:18:36.187Z,100494.44
2022-11-07T00:21:08.846Z,100502.47
2022-11-07T00:23:36.334Z,100496.97
2022-11-07T00:26:08.241Z,100499.28
2022-11-07T00:28:39.471Z,100499.88
2022-11-07T00:31:07.450Z,100504.94
2022-11-07T00:33:33.835Z,100491.41
2022-11-07T00:36:00.484Z,100484.81
2022-11-07T00:38:27.262Z,100490.91
2022-11-07T00:41:02.028Z,100477.94
2022-11-07T00:43:29.125Z,100482.56
2022-11-07T00:45:56.373Z,100483.78
2022-11-07T00:48:23.307Z,100500.91
2022-11-07T00:50:49.865Z,100509.81
2022-11-07T00:53:16.814Z,100504.06
2022-11-07T00:55:43.500Z,100504.69
2022-11-07T00:58:13.896Z,100514.41
2022-11-07T01:00:41.283Z,100509.31
2022-11-07T01:03:26.166Z,100507.78
2022-11-07T01:06:01.518Z,100509.25
2022-11-07T01:08:28.497Z,100509.88
2022-11-07T01:10:55.485Z,100509.69
2022-11-07T01:13:22.768Z,100521.28
2022-11-07T01:15:49.580Z,100513.63
2022-11-07T01:18:16.082Z,100505.78
2022-11-07T01:20:42.610Z,100506.19
2022-11-07T01:23:09.859Z,100501.09
2022-11-07T01:25:37.989Z,100500.63
2022-11-07T01:28:05.974Z,100496.78
2022-11-07T01:30:32.589Z,100500.16
2022-11-07T01:32:59.452Z,100504.63
2022-11-07T01:35:25.903Z,100501.41
2022-11-07T01:37:52.318Z,100498.19
2022-11-07T01:40:18.734Z,100483.97
2022-11-07T01:42:45.129Z,100488.81
2022-11-07T01:45:26.078Z,100488.59
2022-11-07T01:47:54.284Z,100482.22
2022-11-07T01:50:24.612Z,100487.28
2022-11-07T01:52:53.056Z,100492.56
2022-11-07T01:55:24.087Z,100489.78
2022-11-07T01:58:09.390Z,100491.34
2022-11-07T02:00:36.862Z,100497.53
2022-11-07T02:03:11.119Z,100498.81
2022-11-07T02:05:44.272Z,100495.72
2022-11-07T02:08:12.056Z,100499.44
2022-11-07T02:10:40.660Z,100503.75
2022-11-07T02:13:07.439Z,100503.41
2022-11-07T02:15:36.350Z,100497.16
2022-11-07T02:18:03.489Z,100498.06
2022-11-07T02:20:29.965Z,100495.41
2022-11-07T02:23:05.621Z,100504.94
2022-11-07T02:25:32.104Z,100505.03
2022-11-07T02:28:02.040Z,100509.72
2022-11-07T02:30:32.234Z,100511.25
2022-11-07T02:32:58.645Z,100510.63
2022-11-07T02:35:47.734Z,100521.44
2022-11-07T02:38:20.267Z,100520.44
2022-11-07T02:40:51.288Z,100517.91
2022-11-07T02:43:20.667Z,100511.59
2022-11-07T02:45:49.067Z,100501.44
2022-11-07T02:48:15.803Z,100513.28
2022-11-07T02:50:42.835Z,100509.50
2022-11-07T02:53:09.665Z,100500.22
2022-11-07T02:55:36.316Z,100496.84
2022-11-07T02:58:03.057Z,100501.06
2022-11-07T03:00:29.726Z,100500.44
2022-11-07T03:02:56.229Z,100501.72
2022-11-07T03:05:22.887Z,100500.00
2022-11-07T03:07:50.179Z,100504.88
2022-11-07T03:10:17.578Z,100495.56
2022-11-07T03:12:44.042Z,100501.91
2022-11-07T03:15:11.641Z,100497.69
2022-11-07T03:17:38.174Z,100493.88
2022-11-07T03:20:05.479Z,100495.59
2022-11-07T03:22:31.909Z,100495.59
2022-11-07T03:24:58.317Z,100500.00
2022-11-07T03:27:24.701Z,100495.16
2022-11-07T03:29:51.122Z,100494.91
2022-11-07T03:32:17.514Z,100499.16
2022-11-07T03:34:43.993Z,100497.69
2022-11-07T03:37:10.375Z,100502.50
2022-11-07T03:39:36.756Z,100497.22
2022-11-07T03:42:03.255Z,100512.22
2022-11-07T03:44:29.619Z,100506.09
2022-11-07T03:46:56.022Z,100504.81
2022-11-07T03:49:22.470Z,100518.34
2022-11-07T03:51:48.894Z,100523.41
2022-11-07T03:54:15.336Z,100515.34
2022-11-07T03:56:41.704Z,100508.81
2022-11-07T03:59:08.114Z,100510.28
2022-11-07T04:01:34.647Z,100510.06
2022-11-07T04:04:01.166Z,100511.78
2022-11-07T04:06:27.597Z,100503.53
2022-11-07T04:08:53.981Z,100503.94
2022-11-07T04:11:38.894Z,100503.69
2022-11-07T04:14:23.601Z,100513.66
2022-11-07T04:17:10.267Z,100508.59
2022-11-07T04:19:36.729Z,100507.75
2022-11-07T04:22:03.145Z,100509.00
2022-11-07T04:24:29.613Z,100504.13
2022-11-07T04:27:14.855Z,100503.69
2022-11-07T04:29:41.303Z,100492.47
2022-11-07T04:32:07.708Z,100495.44
2022-11-07T04:34:34.074Z,100495.44
2022-11-07T04:37:00.518Z,100503.91
2022-11-07T04:39:26.985Z,100506.88
2022-11-07T04:41:53.451Z,100518.28
2022-11-07T04:44:19.919Z,100517.69
2022-11-07T04:46:46.284Z,100517.03
2022-11-07T04:49:15.172Z,100522.97
2022-11-07T04:51:43.099Z,100528.91
2022-11-07T04:54:14.453Z,100517.50
2022-11-07T04:56:41.095Z,100520.88
2022-11-07T04:59:08.038Z,100524.66
2022-11-07T05:01:34.509Z,100525.53
2022-11-07T05:04:00.954Z,100528.50
2022-11-07T05:06:27.440Z,100525.53
2022-11-07T05:08:53.890Z,100517.50
2022-11-07T05:11:20.285Z,100513.06
2022-11-07T05:13:46.654Z,100512.03
2022-11-07T05:16:19.098Z,100511.38
2022-11-07T05:18:45.961Z,100514.56
2022-11-07T05:21:12.474Z,100516.66
2022-11-07T05:23:39.038Z,100519.41
2022-11-07T05:26:05.618Z,100526.59
2022-11-07T05:28:38.705Z,100534.63
2022-11-07T05:31:07.378Z,100530.84
2022-11-07T05:33:34.276Z,100544.34
2022-11-07T05:36:16.082Z,100537.16
2022-11-07T05:38:44.655Z,100536.94
2022-11-07T05:41:12.377Z,100533.34
2022-11-07T05:43:39.537Z,100514.78
2022-11-07T05:46:06.321Z,100524.25
2022-11-07T05:48:32.781Z,100531.66
2022-11-07T05:51:00.025Z,100513.03
2022-11-07T05:53:26.910Z,100514.50
2022-11-07T05:55:54.310Z,100521.06
2022-11-07T05:58:21.553Z,100518.72
2022-11-07T06:00:48.397Z,100519.34
2022-11-07T06:03:15.661Z,100532.25
2022-11-07T06:05:43.142Z,100530.31
2022-11-07T06:08:12.131Z,100531.97
2022-11-07T06:10:41.131Z,100533.00
2022-11-07T06:13:11.486Z,100531.75
2022-11-07T06:15:39.568Z,100528.31
2022-11-07T06:18:08.519Z,100530.22
2022-11-07T06:20:35.342Z,100534.44
2022-11-07T06:23:03.919Z,100538.22
2022-11-07T06:25:31.376Z,100540.09
2022-11-07T06:28:03.096Z,100530.34
2022-11-07T06:30:30.184Z,100539.88
2022-11-07T06:33:01.781Z,100540.03
2022-11-07T06:35:28.567Z,100541.94
2022-11-07T06:37:54.958Z,100545.69
2022-11-07T06:40:21.351Z,100551.59
2022-11-07T06:42:47.704Z,100558.59
2022-11-07T06:45:14.178Z,100559.41
2022-11-07T06:47:40.559Z,100549.25
2022-11-07T06:50:07.508Z,100557.91
2022-11-07T06:52:33.900Z,100565.13
2022-11-07T06:55:00.291Z,100561.06
2022-11-07T06:57:27.802Z,100570.81
2022-11-07T06:59:54.180Z,100564.84
2022-11-07T07:02:44.228Z,100569.06
2022-11-07T07:05:07.580Z,100575.41
2022-11-07T07:07:33.966Z,100570.53
2022-11-07T07:10:00.430Z,100582.19
2022-11-07T07:12:26.813Z,100584.47
2022-11-07T07:14:53.175Z,100586.19
2022-11-07T07:17:19.608Z,100580.44
2022-11-07T07:19:45.991Z,100590.19
2022-11-07T07:22:13.795Z,100582.53
2022-11-07T07:24:40.353Z,100583.78
2022-11-07T07:27:07.091Z,100587.16
2022-11-07T07:29:33.723Z,100593.28
2022-11-07T07:32:00.143Z,100596.44
2022-11-07T07:34:26.545Z,100591.78
2022-11-07T07:36:55.686Z,100590.47
2022-11-07T07:39:23.601Z,100583.69
2022-11-07T07:41:50.710Z,100588.75
2022-11-07T07:44:17.128Z,100590.00
2022-11-07T07:46:43.532Z,100596.75
2022-11-07T07:49:10.024Z,100592.47
2022-11-07T07:51:36.462Z,100593.69
2022-11-07T07:54:02.919Z,100596.63
2022-11-07T07:56:29.327Z,100604.00
2022-11-07T07:58:55.740Z,100602.28
2022-11-07T08:01:22.282Z,100614.28
2022-11-07T08:04:01.243Z,100607.91
2022-11-07T08:06:29.343Z,100613.94
2022-11-07T08:08:56.192Z,100606.72
2022-11-07T08:11:22.627Z,100611.09
2022-11-07T08:13:49.081Z,100612.03
2022-11-07T08:16:15.781Z,100604.72
2022-11-07T08:18:42.158Z,100609.25
2022-11-07T08:21:09.084Z,100611.84
2022-11-07T08:23:36.584Z,100612.78
2022-11-07T08:26:04.476Z,100608.19
2022-11-07T08:28:34.614Z,100615.69
2022-11-07T08:31:05.008Z,100609.38
2022-11-07T08:33:32.144Z,100616.25
2022-11-07T08:36:03.200Z,100609.31
2022-11-07T08:38:31.607Z,100615.13
2022-11-07T08:40:58.568Z,100617.56
2022-11-07T08:43:25.198Z,100620.84
2022-11-07T08:45:53.209Z,100611.34
2022-11-07T08:48:20.388Z,100620.84
2022-11-07T08:50:50.919Z,100612.50
2022-11-07T08:53:17.623Z,100613.25
2022-11-07T08:55:44.280Z,100616.13
2022-11-07T08:58:10.667Z,100612.16
2022-11-07T09:00:37.178Z,100614.22
2022-11-07T09:05:51.436Z,100617.00
2022-11-07T09:08:18.274Z,100615.19
2022-11-07T09:10:44.870Z,100622.53
2022-11-07T09:13:11.357Z,100631.22
2022-11-07T09:15:37.732Z,100627.47
2022-11-07T09:18:05.486Z,100622.66
2022-11-07T09:20:33.058Z,100618.09
2022-11-07T09:23:00.322Z,100620.72
2022-11-07T09:25:26.900Z,100617.25
2022-11-07T09:27:53.577Z,100615.19
2022-11-07T09:30:20.401Z,100612.06
2022-11-07T09:32:47.287Z,100620.22
2022-11-07T09:35:14.559Z,100611.78
2022-11-07T09:37:42.372Z,100618.63
2022-11-07T09:40:38.514Z,100623.78
2022-11-07T09:43:26.746Z,100622.34
2022-11-07T09:46:22.550Z,100620.88
2022-11-07T09:49:04.680Z,100616.25
2022-11-07T09:51:35.476Z,100623.34
2022-11-07T09:54:07.481Z,100632.69
2022-11-07T09:56:34.323Z,100640.25
2022-11-07T09:59:12.734Z,100638.34
2022-11-07T10:01:40.678Z,100644.22
2022-11-07T10:04:25.443Z,100648.94
2022-11-07T10:07:11.815Z,100639.41
2022-11-07T10:09:54.726Z,100637.72
2022-11-07T10:12:44.575Z,100652.19
2022-11-07T10:15:27.726Z,100648.81
2022-11-07T10:18:03.267Z,100648.66
2022-11-07T10:21:10.294Z,100651.19
2022-11-07T10:24:09.301Z,100659.28
2022-11-07T10:26:36.677Z,100667.84
2022-11-07T10:29:13.188Z,100661.56
2022-11-07T10:31:44.401Z,100669.72
2022-11-07T10:34:29.687Z,100665.34
2022-11-07T10:36:56.151Z,100666.72
2022-11-07T10:39:22.652Z,100659.66
2022-11-07T10:41:58.741Z,100660.19
2022-11-07T10:44:29.133Z,100659.19
2022-11-07T10:46:55.567Z,100655.50
2022-11-07T10:49:31.965Z,100650.06
2022-11-07T10:52:18.468Z,100655.69
2022-11-07T10:54:45.284Z,100654.59
2022-11-07T10:57:23.137Z,100657.78
2022-11-07T10:59:52.241Z,100645.09
2022-11-07T11:02:27.322Z,100647.38
2022-11-07T11:05:02.522Z,100638.47
2022-11-07T11:07:40.036Z,100637.69
2022-11-07T11:10:28.404Z,100631.97
2022-11-07T11:12:55.118Z,100641.75
2022-11-07T11:15:27.164Z,100629.88
2022-11-07T11:18:18.041Z,100632.47
2022-11-07T11:21:01.524Z,100639.78
2022-11-07T11:23:31.594Z,100636.34
2022-11-07T11:26:01.766Z,100629.13
2022-11-07T11:28:33.336Z,100627.75
2022-11-07T11:31:25.318Z,100630.81
2022-11-07T11:33:58.569Z,100629.69
2022-11-07T11:36:29.332Z,100620.53
2022-11-07T11:38:56.153Z,100629.28
2022-11-07T11:41:51.720Z,100621.78
2022-11-07T11:44:23.587Z,100629.28
2022-11-07T11:46:49.916Z,100618.69
2022-11-07T11:49:30.318Z,100620.56
2022-11-07T11:52:03.312Z,100630.81
2022-11-07T11:54:29.775Z,100620.03
2022-11-07T11:57:04.471Z,100626.91
2022-11-07T12:00:08.487Z,100631.31
2022-11-07T12:03:05.994Z,100635.94
2022-11-07T12:05:32.365Z,100633.31
2022-11-07T12:08:20.772Z,100634.34
2022-11-07T12:11:03.262Z,100642.44
2022-11-07T12:13:59.493Z,100642.25
2022-11-07T12:16:35.227Z,100624.31
2022-11-07T12:19:10.999Z,100625.78
2022-11-07T12:22:03.051Z,100614.38
2022-11-07T12:24:59.458Z,100616.16
2022-11-07T12:27:41.844Z,100610.13
2022-11-07T12:30:08.519Z,100606.78
2022-11-07T12:32:44.126Z,100602.25
2022-11-07T12:35:47.774Z,100598.75
2022-11-07T12:38:36.003Z,100596.50
2022-11-07T12:41:40.856Z,100596.94
2022-11-07T12:44:41.881Z,100609.88
2022-11-07T12:47:34.705Z,100609.84
2022-11-07T12:50:10.387Z,100612.34
2022-11-07T12:52:59.691Z,100624.06
2022-11-07T12:55:36.946Z,100623.47
2022-11-07T12:58:05.947Z,100616.25
2022-11-07T13:00:32.581Z,100612.63
2022-11-07T13:03:31.602Z,100619.88
2022-11-07T13:06:15.926Z,100613.13
2022-11-07T13:09:03.078Z,100611.13
2022-11-07T13:12:00.441Z,100603.28
2022-11-07T13:14:32.213Z,100609.75
2022-11-07T13:16:58.536Z,100596.19
2022-11-07T13:19:31.271Z,100590.97
2022-11-07T13:22:05.928Z,100600.16
2022-11-07T13:24:37.071Z,100598.03
2022-11-07T13:27:15.510Z,100601.31
2022-11-07T13:29:41.970Z,100607.81
2022-11-07T13:32:11.669Z,100608.44
2022-11-07T13:34:46.796Z,100603.38
2022-11-07T13:37:18.854Z,100596.56
2022-11-07T13:39:47.941Z,100602.75
2022-11-07T13:42:19.028Z,100608.91
2022-11-07T13:44:53.424Z,100608.81
2022-11-07T13:47:26.105Z,100617.16
2022-11-07T13:49:57.942Z,100603.91
2022-11-07T13:52:40.235Z,100603.44
2022-11-07T13:55:14.454Z,100597.94
2022-11-07T13:57:47.809Z,100609.13
2022-11-07T14:00:16.782Z,100612.47
2022-11-07T14:02:57.894Z,100621.25
2022-11-07T14:05:27.950Z,100614.34
2022-11-07T14:08:00.100Z,100613.63
2022-11-07T14:10:39.778Z,100619.50
2022-11-07T14:13:19.778Z,100614.94
2022-11-07T14:15:49.128Z,100604.41
2022-11-07T14:18:18.083Z,100605.63
2022-11-07T14:20:50.101Z,100613.50
2022-11-07T14:23:19.476Z,100607.50
2022-11-07T14:26:04.946Z,100603.66
2022-11-07T14:28:37.640Z,100608.66
2022-11-07T14:31:15.744Z,100607.63
2022-11-07T14:33:49.390Z,100616.81
2022-11-07T14:36:16.366Z,100611.25
2022-11-07T14:38:54.288Z,100621.81
2022-11-07T14:41:22.054Z,100613.25
2022-11-07T14:43:50.597Z,100627.75
2022-11-07T14:46:23.135Z,100627.06
2022-11-07T14:48:51.458Z,100617.81
2022-11-07T14:51:23.920Z,100615.84
2022-11-07T14:54:01.416Z,100619.38
2022-11-07T14:56:43.951Z,100614.59
2022-11-07T14:59:15.635Z,100612.09
2022-11-07T15:01:55.337Z,100608.47
2022-11-07T15:04:38.100Z,100611.41
2022-11-07T15:07:23.030Z,100613.88
2022-11-07T15:09:52.098Z,100612.13
2022-11-07T15:12:26.819Z,100625.94
2022-11-07T15:15:17.954Z,100617.56
2022-11-07T15:17:47.353Z,100625.47
2022-11-07T15:20:21.971Z,100612.09
2022-11-07T15:22:48.387Z,100627.25
2022-11-07T15:25:33.350Z,100615.47
2022-11-07T15:28:23.270Z,100627.09
2022-11-07T15:30:51.812Z,100617.31
2022-11-07T15:33:19.042Z,100619.28
2022-11-07T15:35:48.374Z,100611.44
2022-11-07T15:38:21.578Z,100614.72
2022-11-07T15:40:48.749Z,100619.38
2022-11-07T15:43:15.291Z,100625.09
2022-11-07T15:45:42.692Z,100630.03
2022-11-07T15:48:16.327Z,100624.97
2022-11-07T15:50:44.080Z,100630.44
2022-11-07T15:53:22.725Z,100623.22
2022-11-07T15:55:58.612Z,100635.97
2022-11-07T15:58:27.090Z,100628.78
2022-11-07T16:00:54.594Z,100633.47
2022-11-07T16:03:23.305Z,100630.44
2022-11-07T16:05:51.927Z,100633.13
2022-11-07T16:08:21.385Z,100631.69
2022-11-07T16:10:54.876Z,100636.03
2022-11-07T16:13:21.626Z,100628.00
2022-11-07T16:15:55.847Z,100637.56
2022-11-07T16:18:22.368Z,100625.88
2022-11-07T16:20:49.384Z,100635.38
2022-11-07T16:23:16.613Z,100628.63
2022-11-07T16:25:45.597Z,100640.00
2022-11-07T16:28:28.606Z,100633.25
2022-11-07T16:30:56.011Z,100648.72
2022-11-07T16:33:23.636Z,100639.81
2022-11-07T16:35:53.455Z,100641.97
2022-11-07T16:38:22.346Z,100652.38
2022-11-07T16:40:48.864Z,100658.44
2022-11-07T16:43:15.902Z,100658.44
2022-11-07T16:45:54.934Z,100667.00
2022-11-07T16:48:27.321Z,100665.28
2022-11-07T16:50:55.460Z,100670.03
2022-11-07T16:53:23.142Z,100670.84
2022-11-07T16:55:53.976Z,100658.31
2022-11-07T16:58:26.630Z,100661.94
2022-11-07T17:00:54.166Z,100664.13
2022-11-07T17:03:20.903Z,100663.28
2022-11-07T17:05:48.016Z,100669.34
2022-11-07T17:08:38.820Z,100677.03
2022-11-07T17:11:05.776Z,100688.00
2022-11-07T17:13:32.325Z,100673.81
2022-11-07T17:15:59.579Z,100671.88
2022-11-07T17:18:27.229Z,100671.88
2022-11-07T17:20:54.383Z,100667.44
2022-11-07T17:23:28.472Z,100664.06
2022-11-07T17:25:59.558Z,100669.59
2022-11-07T17:28:26.139Z,100670.34
2022-11-07T17:30:52.681Z,100677.44
2022-11-07T17:33:19.114Z,100673.25
2022-11-07T17:35:45.919Z,100676.88
2022-11-07T17:38:19.296Z,100678.28
2022-11-07T17:40:46.021Z,100674.94
2022-11-07T17:43:12.469Z,100668.31
2022-11-07T17:45:40.262Z,100674.44
2022-11-07T17:48:06.817Z,100676.13
2022-11-07T17:50:33.240Z,100676.13
2022-11-07T17:53:00.279Z,100668.66
2022-11-07T17:55:26.816Z,100682.53
2022-11-07T17:57:53.784Z,100683.09
2022-11-07T18:00:24.912Z,100682.03
2022-11-07T18:02:52.612Z,100687.56
2022-11-07T18:05:21.192Z,100687.06
2022-11-07T18:07:47.790Z,100689.00
2022-11-07T18:10:15.642Z,100680.69
2022-11-07T18:12:42.957Z,100674.31
2022-11-07T18:15:12.824Z,100679.59
2022-11-07T18:17:40.415Z,100673.81
2022-11-07T18:20:09.212Z,100671.88
2022-11-07T18:22:37.122Z,100676.84
2022-11-07T18:25:05.713Z,100682.97
2022-11-07T18:27:32.379Z,100679.59
2022-11-07T18:29:58.805Z,100678.25
2022-11-07T18:32:25.230Z,100680.19
2022-11-07T18:34:51.670Z,100682.47
2022-11-07T18:37:18.795Z,100686.94
2022-11-07T18:39:45.253Z,100680.53
2022-11-07T18:42:11.763Z,100673.56
2022-11-07T18:44:38.277Z,100674.16
2022-11-07T18:47:04.781Z,100681.38
2022-11-07T18:49:31.337Z,100684.41
2022-11-07T18:51:57.843Z,100677.75
2022-11-07T18:54:25.808Z,100687.19
2022-11-07T18:56:52.689Z,100682.97
2022-11-07T18:59:19.391Z,100684.53
2022-11-07T19:01:46.178Z,100687.91
2022-11-07T19:04:12.826Z,100677.34
2022-11-07T19:06:55.744Z,100690.34
2022-11-07T19:09:33.212Z,100682.75
2022-11-07T19:12:00.897Z,100683.00
2022-11-07T19:14:28.359Z,100689.66
2022-11-07T19:16:54.922Z,100688.19
2022-11-07T19:19:21.538Z,100683.75
2022-11-07T19:21:48.132Z,100684.22
2022-11-07T19:24:14.686Z,100680.84
2022-11-07T19:26:41.502Z,100681.34
2022-11-07T19:29:11.523Z,100680.75
2022-11-07T19:31:38.758Z,100671.72
2022-11-07T19:34:06.039Z,100678.97
2022-11-07T19:36:33.310Z,100683.06
2022-11-07T19:39:00.038Z,100673.06
2022-11-07T19:41:26.563Z,100683.28
2022-11-07T19:43:53.099Z,100682.22
2022-11-07T19:46:22.302Z,100676.06
2022-11-07T19:48:50.371Z,100656.09
2022-11-07T19:51:22.203Z,100661.88
2022-11-07T19:53:57.482Z,100666.09
2022-11-07T19:56:25.869Z,100675.25
2022-11-07T19:58:52.499Z,100679.69
2022-11-07T20:01:22.382Z,100678.38
2022-11-07T20:03:51.389Z,100673.06
2022-11-07T20:06:21.760Z,100680.53
2022-11-07T20:08:48.972Z,100677.19
2022-11-07T20:11:17.917Z,100675.31
2022-11-07T20:13:44.497Z,100678.59
2022-11-07T20:16:11.263Z,100686.31
2022-11-07T20:18:39.338Z,100685.94
2022-11-07T20:21:10.374Z,100688.94
2022-11-07T20:23:36.940Z,100679.44
2022-11-07T20:26:08.489Z,100685.25
2022-11-07T20:28:35.211Z,100692.56
2022-11-07T20:31:07.180Z,100688.00
2022-11-07T20:33:33.611Z,100685.59
2022-11-07T20:36:02.884Z,100693.41
2022-11-07T20:38:30.064Z,100695.69
2022-11-07T20:40:56.799Z,100686.06
2022-11-07T20:43:24.142Z,100703.00
2022-11-07T20:45:51.096Z,100693.97
2022-11-07T20:48:18.164Z,100690.94
2022-11-07T20:50:45.219Z,100689.09
2022-11-07T20:53:12.031Z,100689.00
2022-11-07T20:55:43.402Z,100694.16
2022-11-07T20:58:11.068Z,100701.09
2022-11-07T21:00:39.614Z,100693.50
2022-11-07T21:03:07.254Z,100701.66
2022-11-07T21:05:33.823Z,100695.94
2022-11-07T21:08:00.230Z,100693.66
2022-11-07T21:10:26.693Z,100696.06
2022-11-07T21:12:53.130Z,100714.44
2022-11-07T21:15:20.602Z,100714.75
2022-11-07T21:17:47.046Z,100710.38
2022-11-07T21:20:13.558Z,100716.59
2022-11-07T21:22:40.107Z,100710.06
2022-11-07T21:25:07.111Z,100708.59
2022-11-07T21:27:37.887Z,100706.53
2022-11-07T21:30:06.070Z,100703.00
2022-11-07T21:32:34.948Z,100698.81
2022-11-07T21:35:01.415Z,100703.94
2022-11-07T21:37:27.926Z,100707.38
2022-11-07T21:39:54.367Z,100711.47
2022-11-07T21:42:20.905Z,100695.59
2022-11-07T21:44:47.422Z,100689.06
2022-11-07T21:47:14.066Z,100685.31
2022-11-07T21:49:40.531Z,100689.84
2022-11-07T21:52:06.985Z,100688.81
2022-11-07T21:54:33.573Z,100692.50
2022-11-07T21:57:00.311Z,100690.81
2022-11-07T21:59:26.789Z,100689.13
2022-11-07T22:01:54.980Z,100691.88
2022-11-07T22:04:21.562Z,100688.50
2022-11-07T22:06:48.018Z,100686.22
2022-11-07T22:09:17.359Z,100684.97
2022-11-07T22:11:44.164Z,100682.88
2022-11-07T22:14:14.893Z,100677.59
2022-11-07T22:16:41.800Z,100679.28
2022-11-07T22:19:12.255Z,100672.72
2022-11-07T22:21:39.126Z,100669.09
2022-11-07T22:24:05.772Z,100673.78
2022-11-07T22:26:32.216Z,100677.00
2022-11-07T22:28:58.606Z,100678.50
2022-11-07T22:31:28.525Z,100680.03
2022-11-07T22:33:56.107Z,100677.09
2022-11-07T22:36:23.780Z,100677.56
2022-11-07T22:38:50.608Z,100672.47
2022-11-07T22:41:22.755Z,100671.22
2022-11-07T22:43:50.149Z,100668.31
2022-11-07T22:46:19.863Z,100664.94
2022-11-07T22:48:48.012Z,100663.69
2022-11-07T22:51:17.106Z,100669.66
2022-11-07T22:53:43.606Z,100666.72
2022-11-07T22:56:12.315Z,100668.25
2022-11-07T22:58:39.806Z,100673.13
2022-11-07T23:01:13.250Z,100669.78
2022-11-07T23:03:39.651Z,100674.03
2022-11-07T23:06:06.097Z,100664.94
2022-11-07T23:08:36.776Z,100669.00
2022-11-07T23:11:44.121Z,100657.31
2022-11-07T23:14:00.836Z,100658.78
2022-11-07T23:16:38.962Z,100663.88
2022-11-07T23:19:08.183Z,100663.41
2022-11-07T23:21:35.955Z,100668.94
2022-11-07T23:24:03.048Z,100666.16
2022-11-07T23:26:33.818Z,100664.25
2022-11-07T23:29:10.860Z,100660.03
2022-11-07T23:31:39.458Z,100660.88
2022-11-07T23:34:06.101Z,100658.13
2022-11-07T23:36:32.600Z,100657.50
2022-11-07T23:39:06.471Z,100655.81
2022-11-07T23:41:33.068Z,100659.63
2022-11-07T23:43:59.498Z,100651.81
2022-11-07T23:46:44.471Z,100659.47
2022-11-07T23:49:30.040Z,100648.88
2022-11-07T23:51:56.466Z,100652.31
2022-11-07T23:54:41.637Z,100643.22
2022-11-07T23:57:08.105Z,100638.16
2022-11-07T23:59:54.578Z,100635.59
